Flight Track Log - Related Links

Times and Time Zones

All times are in EDT time to prevent confusion due to time zone crossing. See the N830QS flight status page for this flight to view local times or setup timezone preferences in your user account.


Time Position Orientation Groundspeed Altitude Reporting Facility
EDT Latitude Longitude Course Direction KTS MPH feet Rate Location/Type
Tue 04:26:52 PM 33.4333 -112.0333 252° West 194 223 1,900  Level Phoenix TRACON
Tue 04:28:04 PM 33.4072 -112.1300 252° West 234 269 4,300 2,328 Climbing Albuquerque Center
Tue 04:29:06 PM 33.3408 -112.1525 196° South 271 312 7,100 2,661 Climbing Albuquerque Center
Tue 04:30:08 PM 33.2733 -112.1008 147° Southeast 293 337 9,800 2,683 Climbing Albuquerque Center
Tue 04:31:09 PM 33.2336 -112.0178 120° Southeast 310 357 12,600 2,585 Climbing Albuquerque Center
Tue 04:32:11 PM 33.2222 -111.9153 98° East 313 360 15,100 2,371 Climbing Albuquerque Center
Tue 04:33:13 PM 33.2114 -111.8092 97° East 322 371 17,500 2,341 Climbing Albuquerque Center
Tue 04:34:14 PM 33.1986 -111.6994 98° East 333 383 19,900 2,341 Climbing Albuquerque Center
Tue 04:35:16 PM 33.1708 -111.5683 104° East 341 392 22,300 1,790 Climbing Albuquerque Center
Tue 04:36:18 PM 33.1469 -111.4547 104° East 353 406 23,600 1,024 Climbing Albuquerque Center
Tue 04:37:19 PM 33.1231 -111.3367 104° East 364 419 24,400 878 Climbing Albuquerque Center
Tue 04:38:21 PM 33.0975 -111.2147 104° East 378 435 25,400 774 Climbing Albuquerque Center
Tue 04:39:23 PM 33.0703 -111.0900 105° East 387 445 26,000 537 Climbing Albuquerque Center
Tue 04:40:24 PM 33.0433 -110.9583 104° East 405 466 26,500 732 Climbing Albuquerque Center
Tue 04:41:26 PM 33.0097 -110.8050 105° East 404 465 27,500 1,024 Climbing Albuquerque Center
Tue 04:42:27 PM 32.9828 -110.6775 104° East 399 459 28,600 1,024 Climbing Albuquerque Center
Tue 04:43:29 PM 32.9531 -110.5489 105° East 395 455 29,600 968 Climbing Albuquerque Center
Tue 04:44:31 PM 32.9269 -110.4239 104° East 392 451 30,600 976 Climbing Albuquerque Center
Tue 04:45:32 PM 32.8997 -110.2972 104° East 395 455 31,600 976 Climbing Albuquerque Center
Tue 04:46:34 PM 32.8717 -110.1703 105° East 397 457 32,600 677 Climbing Albuquerque Center
Tue 04:47:36 PM 32.8433 -110.0419 105° East 400 460 33,000 195 Climbing Albuquerque Center
Tue 04:48:37 PM 32.8103 -109.9069 106° East 419 482 33,000  Level Albuquerque Center
Tue 04:49:39 PM 32.7747 -109.7436 104° East 427 491 33,000  Level Albuquerque Center
Tue 04:50:41 PM 32.7447 -109.6075 105° East 428 493 33,000  Level Albuquerque Center
Tue 04:51:42 PM 32.7136 -109.4725 105° East 428 493 33,000  Level Albuquerque Center
Tue 04:52:44 PM 32.6744 -109.3394 109° East 430 495 33,000  Level Albuquerque Center
Tue 04:53:46 PM 32.6331 -109.2081 110° East 430 495 33,000  Level Albuquerque Center
Tue 04:54:47 PM 32.5942 -109.0761 109° East 429 494 33,000  Level Albuquerque Center
Tue 04:55:49 PM 32.5461 -108.9167 110° East 431 496 33,000  Level Albuquerque Center
Tue 04:56:51 PM 32.5031 -108.7864 111° Southeast 431 496 33,000  Level Albuquerque Center
Tue 04:57:52 PM 32.4358 -108.6708 125° Southeast 431 496 33,000  Level Albuquerque Center
Tue 04:58:55 PM 32.3625 -108.5589 128° Southeast 432 497 33,000  Level Albuquerque Center
Tue 04:59:56 PM 32.3339 -108.4264 104° East 437 503 33,000  Level Albuquerque Center
Tue 05:00:58 PM 32.3075 -108.2600 101° East 432 497 33,000  Level Albuquerque Center
Tue 05:02:00 PM 32.2864 -108.1217 100° East 430 495 33,000  Level Albuquerque Center
Tue 05:03:01 PM 32.2644 -107.9819 100° East 433 498 33,000  Level Albuquerque Center
Tue 05:04:03 PM 32.2436 -107.8442 100° East 431 496 33,000  Level Albuquerque Center
Tue 05:05:05 PM 32.2217 -107.7053 101° East 432 497 33,000 -780 Level Albuquerque Center
Tue 05:06:06 PM 32.1997 -107.5653 100° East 435 501 31,400 -2,488 Descending Albuquerque Center
Tue 05:07:08 PM 32.1747 -107.4028 100° East 428 493 27,900 -3,097 Descending Albuquerque Center
Tue 05:08:10 PM 32.1528 -107.2722 101° East 417 480 25,000 -2,780 Descending Albuquerque Center
Tue 05:09:11 PM 32.1339 -107.1439 100° East 406 467 22,200 -2,732 Descending Albuquerque Center
Tue 05:10:13 PM 32.1131 -107.0161 101° East 403 464 19,400 -2,718 Descending Albuquerque Center
Tue 05:11:08 PM 32.0928 -106.8942 101° East 366 421 16,900 -2,607 Descending Albuquerque Center
Tue 05:12:15 PM 32.0747 -106.7808 101° East 316 364 14,100 -2,484 Descending Albuquerque Center
Tue 05:13:16 PM 32.0597 -106.6844 100° East 300 345 11,600 -2,479 Descending Albuquerque Center
Tue 05:14:16 PM 32.0464 -106.5850 99° East 279 321 9,100 -1,289 Descending Albuquerque Center
Tue 05:15:17 PM 32.0328 -106.4983 100° East 261 300 9,000 -661 Descending Albuquerque Center
Tue 05:16:23 PM 32.0081 -106.4133 109° East 288 331 7,700 -1,240 Descending Albuquerque Center
Tue 05:17:18 PM 31.9469 -106.3644 146° Southeast 264 304 6,500 -879 Descending Albuquerque Center
Tue 05:18:19 PM 31.8856 -106.3444 165° South 216 249 6,000 -645 Descending Albuquerque Center
Tue 05:19:19 PM 31.8311 -106.3381 174° South 189 217 5,200 -992 Descending Albuquerque Center
Tue 05:20:20 PM 31.8000 -106.3558 206° Southwest 134 154 4,000 -1,180 Descending Albuquerque Center
Tue 05:22:00 PM 31.8000 -106.3667 270° West  Level FlightAware Approximate
Tue 05:29:00 PM 31.8072 -106.3764 270° West  Level Estimated
Tue 05:30:00 PM 31.8072 -106.3764 270° West  Level Estimated
Tue 05:31:00 PM 31.8072 -106.3764 270° West  Level Estimated
Tue 05:32:00 PM 31.8072 -106.3764 270° West  Level Estimated

Login

Don't have an account? Register now (free) for customized features, flight alerts, and more!